Time;durP1;ratioP1;P1;durP2;ratioP2;P2;SDS_P1;SDS_P2;PMS_P1;PMS_P2;Temp;Humidity;BMP_temperature;BMP_pressure;BME280_temperature;BME280_humidity;BME280_pressure;Samples;Min_cycle;Max_cycle;Signal;HPM_P1;HPM_P2
2022/01/17 00:00:21;;;;;;;;;;;;;;;-3.86;95.03;98979.97;1721477;83;21069;-69
2022/01/17 00:02:49;;;;;;;;;;;;;;;-3.81;94.88;98976.06;1721438;83;20111;-70
2022/01/17 00:05:15;;;;;;;;;;;;;;;-3.76;94.43;98977.50;1721507;82;20083;-69
2022/01/17 00:07:43;;;;;;;;;;;;;;;-3.71;93.96;98972.25;1721151;82;20136;-69
2022/01/17 00:10:10;;;;;;;;;;;;;;;-3.63;93.32;98967.56;1721221;83;20172;-70
2022/01/17 00:12:43;;;;;;;;;;;;;;;-3.58;93.02;98961.77;1721381;82;21105;-68
2022/01/17 00:15:13;;;;;;;;;;;;;;;-3.52;92.23;98950.09;1715117;82;20107;-70
2022/01/17 00:17:38;;;;;;;;;;;;;;;-3.45;91.92;98941.34;1700910;82;20489;-70
2022/01/17 00:20:11;;;;;;;;;;;;;;;-3.36;91.00;98938.56;1687961;84;20121;-69
2022/01/17 00:22:39;;;;;;;;;;;;;;;-3.28;90.16;98937.89;1688115;84;20182;-69
2022/01/17 00:25:07;;;;;;;;;;;;;;;-3.21;89.87;98934.00;1687772;85;21164;-69
2022/01/17 00:27:34;;;;;;;;;;;;;;;-3.16;89.43;98933.28;1688147;85;20468;-69
2022/01/17 00:30:03;;;;;;;;;;;;;;;-3.11;88.82;98930.16;1688442;85;20157;-69
2022/01/17 00:32:30;;;;;;;;;;;;;;;-3.04;87.98;98928.13;1688072;85;20197;-69
2022/01/17 00:34:58;;;;;;;;;;;;;;;-2.98;87.60;98922.32;1688583;85;20440;-70
2022/01/17 00:37:24;;;;;;;;;;;;;;;-2.92;87.35;98917.84;1688203;85;21066;-69
2022/01/17 00:39:50;;;;;;;;;;;;;;;-2.89;87.36;98914.15;1688418;85;20169;-69
2022/01/17 00:42:17;;;;;;;;;;;;;;;-2.85;86.63;98919.29;1687811;85;20432;-69
2022/01/17 00:44:43;;;;;;;;;;;;;;;-2.80;86.07;98908.63;1688144;84;20192;-69
2022/01/17 00:47:09;;;;;;;;;;;;;;;-2.74;85.81;98904.97;1687964;85;20131;-69
2022/01/17 00:49:36;;;;;;;;;;;;;;;-2.70;85.30;98900.73;1688034;85;21063;-69
2022/01/17 00:52:04;;;;;;;;;;;;;;;-2.64;84.72;98894.09;1687845;85;21674;-69
2022/01/17 00:54:32;;;;;;;;;;;;;;;-2.58;84.21;98893.11;1688137;85;20613;-69
2022/01/17 00:56:58;;;;;;;;;;;;;;;-2.53;83.65;98889.97;1687840;85;20198;-69
2022/01/17 00:59:25;;;;;;;;;;;;;;;-2.47;83.21;98880.10;1688403;84;20201;-69
2022/01/17 01:01:51;;;;;;;;;;;;;;;-2.43;83.32;98872.64;1688194;85;21156;-69
2022/01/17 01:04:17;;;;;;;;;;;;;;;-2.39;83.16;98867.58;1688188;84;20122;-69
2022/01/17 01:06:44;;;;;;;;;;;;;;;-2.36;82.74;98868.44;1688222;85;20167;-69
2022/01/17 01:09:10;;;;;;;;;;;;;;;-2.34;81.93;98864.44;1688364;84;20246;-69
2022/01/17 01:11:36;;;;;;;;;;;;;;;-2.28;82.01;98869.32;1688325;85;20449;-69
2022/01/17 01:14:03;;;;;;;;;;;;;;;-2.23;80.96;98852.44;1677411;85;21154;-69
2022/01/17 01:29:48;;;;;;;;;;;;;;;-1.96;79.13;98839.06;1665736;86;20167;-69
2022/01/17 01:32:18;;;;;;;;;;;;;;;-1.92;78.97;98841.00;1666013;85;20161;-70
2022/01/17 01:34:46;;;;;;;;;;;;;;;-1.88;78.57;98836.73;1665140;86;20154;-69
2022/01/17 01:37:11;;;;;;;;;;;;;;;-1.80;77.37;98842.20;1665518;85;20185;-69
2022/01/17 01:39:38;;;;;;;;;;;;;;;-1.75;76.96;98843.08;1665548;86;21134;-70
2022/01/17 01:42:07;;;;;;;;;;;;;;;-1.70;76.83;98832.34;1665609;86;20181;-69
2022/01/17 01:44:34;;;;;;;;;;;;;;;-1.67;76.50;98822.41;1665645;86;20189;-70
2022/01/17 01:47:00;;;;;;;;;;;;;;;-1.62;75.88;98825.69;1665724;86;20181;-70
2022/01/17 01:49:26;;;;;;;;;;;;;;;-1.58;76.03;98819.27;1665382;86;20205;-69
2022/01/17 01:51:53;;;;;;;;;;;;;;;-1.56;75.84;98818.47;1665655;86;21116;-69
2022/01/17 01:54:19;;;;;;;;;;;;;;;-1.53;76.37;98812.05;1665572;86;20133;-69
2022/01/17 01:56:46;;;;;;;;;;;;;;;-1.52;77.15;98796.71;1665942;86;20150;-69
2022/01/17 01:59:14;;;;;;;;;;;;;;;-1.53;78.32;98793.20;1665374;86;20142;-69
2022/01/17 02:01:40;;;;;;;;;;;;;;;-1.57;79.65;98775.95;1665467;86;20173;-70
2022/01/17 02:04:07;;;;;;;;;;;;;;;-1.62;81.53;98762.97;1665450;86;21154;-69
2022/01/17 02:06:33;;;;;;;;;;;;;;;-1.69;83.92;98742.46;1665471;86;20154;-69
2022/01/17 02:09:01;;;;;;;;;;;;;;;-1.79;85.44;98724.91;1665567;86;20448;-70
2022/01/17 02:11:27;;;;;;;;;;;;;;;-1.89;87.04;98719.44;1665441;86;20165;-69
2022/01/17 02:13:53;;;;;;;;;;;;;;;-1.97;88.69;98742.76;1665435;86;20551;-70
2022/01/17 02:16:22;;;;;;;;;;;;;;;-2.03;89.43;98719.03;1703133;82;21172;-69
2022/01/17 02:18:49;;;;;;;;;;;;;;;-2.08;90.43;98714.95;1710520;84;20420;-69
2022/01/17 02:23:46;;;;;;;;;;;;;;;-2.13;91.90;98701.98;1710948;84;20133;-69
2022/01/17 02:26:13;;;;;;;;;;;;;;;-2.14;92.20;98694.98;1709385;84;20150;-69
2022/01/17 02:28:46;;;;;;;;;;;;;;;-2.16;92.67;98676.41;1710896;84;21137;-69
2022/01/17 02:31:13;;;;;;;;;;;;;;;-2.16;92.85;98678.29;1710398;84;20129;-70
2022/01/17 02:33:39;;;;;;;;;;;;;;;-2.17;92.73;98676.13;1710705;84;20173;-69
2022/01/17 02:36:06;;;;;;;;;;;;;;;-2.16;92.76;98670.22;1710964;84;20117;-70
2022/01/17 02:38:32;;;;;;;;;;;;;;;-2.15;92.72;98665.93;1710749;84;20117;-69
2022/01/17 02:40:59;;;;;;;;;;;;;;;-2.13;92.44;98657.61;1710689;84;21229;-69
2022/01/17 02:43:26;;;;;;;;;;;;;;;-2.11;92.15;98657.63;1710366;84;21656;-69
2022/01/17 02:48:26;;;;;;;;;;;;;;;-2.05;91.57;98649.08;1710984;83;20185;-69
2022/01/17 02:50:53;;;;;;;;;;;;;;;-2.02;91.25;98641.84;1709994;84;20166;-70
2022/01/17 02:53:20;;;;;;;;;;;;;;;-2.00;90.40;98631.11;1710649;84;21161;-69
2022/01/17 02:55:54;;;;;;;;;;;;;;;-1.94;89.92;98633.31;1710716;83;20468;-70
2022/01/17 02:58:19;;;;;;;;;;;;;;;-1.90;89.21;98623.66;1709556;84;20174;-69
2022/01/17 03:00:47;;;;;;;;;;;;;;;-1.84;87.93;98621.82;1709927;84;20176;-69
2022/01/17 03:03:14;;;;;;;;;;;;;;;-1.77;86.75;98622.41;1710222;84;20269;-69
2022/01/17 03:05:42;;;;;;;;;;;;;;;-1.71;86.19;98605.20;1710851;84;21248;-70
2022/01/17 03:08:08;;;;;;;;;;;;;;;-1.66;84.59;98602.55;1709299;84;20137;-70
2022/01/17 03:10:40;;;;;;;;;;;;;;;-1.59;83.94;98602.33;1710035;84;20101;-69
2022/01/17 03:13:17;;;;;;;;;;;;;;;-1.55;83.24;98590.78;1710251;83;20153;-69
2022/01/17 03:15:45;;;;;;;;;;;;;;;-1.50;82.10;98583.27;1710293;84;20209;-69
2022/01/17 03:18:12;;;;;;;;;;;;;;;-1.46;81.10;98575.77;1710312;82;21169;-69
2022/01/17 03:20:38;;;;;;;;;;;;;;;-1.40;80.56;98576.06;1710303;84;20177;-69
2022/01/17 03:23:06;;;;;;;;;;;;;;;-1.35;79.67;98570.70;1708535;84;20280;-69
2022/01/17 03:25:32;;;;;;;;;;;;;;;-1.29;78.90;98564.00;1710375;84;20169;-69
2022/01/17 03:27:58;;;;;;;;;;;;;;;-1.23;78.11;98566.98;1710677;83;20185;-69
2022/01/17 03:30:24;;;;;;;;;;;;;;;-1.18;77.00;98565.12;1711096;84;21761;-69
2022/01/17 03:32:51;;;;;;;;;;;;;;;-1.10;76.86;98553.81;1710674;84;20150;-69
2022/01/17 03:35:17;;;;;;;;;;;;;;;-1.06;76.73;98554.91;1711128;84;20094;-69
2022/01/17 03:37:44;;;;;;;;;;;;;;;-1.02;76.42;98549.27;1711017;84;20155;-69
2022/01/17 03:40:12;;;;;;;;;;;;;;;-1.01;76.32;98534.72;1711084;83;20432;-69
2022/01/17 03:42:39;;;;;;;;;;;;;;;-0.97;75.89;98536.89;1711267;84;21095;-69
2022/01/17 03:45:07;;;;;;;;;;;;;;;-0.95;75.31;98526.66;1711162;84;20227;-69
2022/01/17 03:47:35;;;;;;;;;;;;;;;-0.92;75.19;98517.51;1711342;84;20201;-69
2022/01/17 03:50:04;;;;;;;;;;;;;;;-0.90;74.79;98518.05;1711009;83;20149;-69
2022/01/17 03:52:30;;;;;;;;;;;;;;;-0.86;74.89;98511.59;1711018;83;20194;-70
2022/01/17 03:54:56;;;;;;;;;;;;;;;-0.84;74.83;98512.95;1710843;84;21027;-69
2022/01/17 03:57:23;;;;;;;;;;;;;;;-0.83;74.79;98509.71;1711001;83;20129;-69
2022/01/17 03:59:49;;;;;;;;;;;;;;;-0.82;74.55;98494.63;1710997;84;20122;-69
2022/01/17 04:02:15;;;;;;;;;;;;;;;-0.80;74.61;98495.70;1711294;84;20232;-69
2022/01/17 04:04:42;;;;;;;;;;;;;;;-0.79;74.50;98497.33;1711077;83;20169;-69
2022/01/17 04:07:10;;;;;;;;;;;;;;;-0.76;74.66;98494.91;1711031;83;20152;-69
2022/01/17 04:09:37;;;;;;;;;;;;;;;-0.75;74.99;98505.95;1711004;83;20120;-69
2022/01/17 04:12:04;;;;;;;;;;;;;;;-0.73;75.13;98494.91;1711027;83;20557;-69
2022/01/17 04:14:34;;;;;;;;;;;;;;;-0.73;75.93;98505.16;1710871;84;20154;-69
2022/01/17 04:16:59;;;;;;;;;;;;;;;-0.73;77.26;98498.95;1713217;82;20169;-70
2022/01/17 04:19:25;;;;;;;;;;;;;;;-0.79;79.77;98506.75;1713591;83;21054;-69
2022/01/17 04:21:52;;;;;;;;;;;;;;;-0.86;81.63;98501.63;1713564;83;20121;-69
2022/01/17 04:24:18;;;;;;;;;;;;;;;-0.95;83.33;98492.44;1713761;83;20165;-69
2022/01/17 04:26:46;;;;;;;;;;;;;;;-1.04;84.69;98490.80;1713551;83;20471;-69
2022/01/17 04:29:12;;;;;;;;;;;;;;;-1.11;87.31;98492.13;1713821;83;20154;-69
2022/01/17 04:31:39;;;;;;;;;;;;;;;-1.19;88.77;98489.45;1713726;83;21163;-70
2022/01/17 04:34:05;;;;;;;;;;;;;;;-1.26;90.27;98488.08;1713719;83;20154;-69
2022/01/17 04:36:31;;;;;;;;;;;;;;;-1.34;91.30;98491.55;1713359;83;20413;-69
2022/01/17 04:38:58;;;;;;;;;;;;;;;-1.40;92.35;98488.56;1713755;83;20475;-69
2022/01/17 04:41:35;;;;;;;;;;;;;;;-1.43;93.27;98493.13;1713727;83;20165;-69
2022/01/17 04:46:20;;;;;;;;;;;;;;;-1.48;94.58;98485.57;1713432;83;20140;-70
2022/01/17 04:48:47;;;;;;;;;;;;;;;-1.50;96.20;98478.30;1713581;83;20158;-69
2022/01/17 04:51:13;;;;;;;;;;;;;;;-1.50;96.12;98468.34;1713594;83;20217;-70
2022/01/17 04:53:42;;;;;;;;;;;;;;;-1.51;96.26;98457.30;1713984;83;20177;-69
2022/01/17 04:56:08;;;;;;;;;;;;;;;-1.50;97.02;98452.72;1713998;83;21895;-69
2022/01/17 04:58:34;;;;;;;;;;;;;;;-1.47;97.04;98456.23;1713854;83;20173;-69
2022/01/17 05:01:00;;;;;;;;;;;;;;;-1.46;96.71;98446.55;1713569;83;20197;-68
2022/01/17 05:03:27;;;;;;;;;;;;;;;-1.43;96.65;98433.91;1713682;83;20262;-69
2022/01/17 05:05:54;;;;;;;;;;;;;;;-1.40;96.57;98428.53;1713719;83;20352;-70
2022/01/17 05:08:21;;;;;;;;;;;;;;;-1.39;96.36;98418.84;1713709;83;21151;-72
2022/01/17 05:10:52;;;;;;;;;;;;;;;-1.36;95.90;98409.43;1713634;83;20081;-72
2022/01/17 05:13:19;;;;;;;;;;;;;;;-1.32;95.57;98401.63;1712994;83;20141;-72
2022/01/17 05:15:49;;;;;;;;;;;;;;;-1.31;95.25;98392.48;1712623;83;20698;-73
2022/01/17 05:18:24;;;;;;;;;;;;;;;-1.26;94.96;98391.14;1695105;83;20173;-73
2022/01/17 05:20:41;;;;;;;;;;;;;;;-1.22;94.76;98382.80;1691461;84;21119;-73
2022/01/17 05:23:09;;;;;;;;;;;;;;;-1.19;94.62;98379.57;1693716;83;20097;-73
2022/01/17 05:25:35;;;;;;;;;;;;;;;-1.17;94.38;98374.19;1703187;83;20414;-73
2022/01/17 05:28:02;;;;;;;;;;;;;;;-1.14;94.17;98370.13;1722552;83;20206;-71
2022/01/17 05:30:28;;;;;;;;;;;;;;;-1.11;94.36;98367.70;1697411;82;20168;-69
2022/01/17 05:32:54;;;;;;;;;;;;;;;-1.10;94.65;98374.70;1699211;83;21032;-73
2022/01/17 05:35:21;;;;;;;;;;;;;;;-1.09;95.04;98366.09;1700758;83;20120;-71
2022/01/17 05:37:47;;;;;;;;;;;;;;;-1.09;96.01;98380.91;1694919;83;20137;-71
2022/01/17 05:40:15;;;;;;;;;;;;;;;-1.10;96.44;98386.02;1693642;84;20495;-71
2022/01/17 05:42:41;;;;;;;;;;;;;;;-1.12;97.43;98388.17;1693847;83;20427;-71
2022/01/17 05:45:09;;;;;;;;;;;;;;;-1.15;98.46;98370.66;1693561;84;21035;-72
2022/01/17 05:47:35;;;;;;;;;;;;;;;-1.18;99.76;98382.53;1706956;83;20418;-72
2022/01/17 05:50:03;;;;;;;;;;;;;;;-1.21;99.83;98387.11;1722518;82;20166;-70
2022/01/17 05:52:30;;;;;;;;;;;;;;;-1.24;100.00;98373.64;1722530;82;20465;-70
2022/01/17 05:54:57;;;;;;;;;;;;;;;-1.24;100.00;98367.45;1722678;82;20155;-71
2022/01/17 05:57:24;;;;;;;;;;;;;;;-1.25;100.00;98355.06;1719365;83;21788;-71
2022/01/17 05:59:51;;;;;;;;;;;;;;;-1.25;100.00;98345.64;1693601;84;20704;-70
2022/01/17 06:02:17;;;;;;;;;;;;;;;-1.22;100.00;98334.33;1693675;84;20416;-71
2022/01/17 06:04:44;;;;;;;;;;;;;;;-1.20;100.00;98345.64;1693602;83;20204;-69
2022/01/17 06:07:11;;;;;;;;;;;;;;;-1.13;100.00;98354.23;1694190;83;20428;-69
2022/01/17 06:09:38;;;;;;;;;;;;;;;-1.07;100.00;98343.73;1722513;83;21148;-69
2022/01/17 06:12:06;;;;;;;;;;;;;;;-1.01;100.00;98339.96;1722827;83;20130;-69
2022/01/17 06:14:32;;;;;;;;;;;;;;;-0.96;100.00;98338.61;1722660;82;20337;-69
2022/01/17 06:16:58;;;;;;;;;;;;;;;-0.90;99.86;98340.23;1711435;82;20453;-69
2022/01/17 06:19:24;;;;;;;;;;;;;;;-0.84;99.46;98342.38;1688501;85;20181;-69
2022/01/17 06:21:51;;;;;;;;;;;;;;;-0.77;99.08;98338.87;1688588;85;21823;-67
2022/01/17 06:24:17;;;;;;;;;;;;;;;-0.72;98.79;98327.55;1688473;85;20175;-69
2022/01/17 06:26:43;;;;;;;;;;;;;;;-0.65;98.46;98335.89;1688355;85;20122;-71
2022/01/17 06:29:12;;;;;;;;;;;;;;;-0.59;98.03;98314.59;1688378;85;20145;-69
2022/01/17 06:31:40;;;;;;;;;;;;;;;-0.56;97.90;98311.32;1688697;84;20468;-68
2022/01/17 06:34:06;;;;;;;;;;;;;;;-0.53;97.53;98306.73;1688525;85;21164;-69
2022/01/17 06:36:32;;;;;;;;;;;;;;;-0.51;97.38;98300.52;1688717;85;20137;-69
2022/01/17 06:38:58;;;;;;;;;;;;;;;-0.48;97.14;98302.67;1688465;85;20137;-69
2022/01/17 06:41:24;;;;;;;;;;;;;;;-0.47;97.30;98290.27;1688450;85;21106;-68
2022/01/17 06:43:50;;;;;;;;;;;;;;;-0.45;97.12;98275.97;1688415;85;20146;-68
2022/01/17 06:46:17;;;;;;;;;;;;;;;-0.44;97.02;98261.95;1688535;85;21074;-68
2022/01/17 06:48:43;;;;;;;;;;;;;;;-0.43;97.02;98260.33;1688301;85;20122;-68
2022/01/17 06:51:10;;;;;;;;;;;;;;;-0.42;97.15;98243.61;1688413;85;20145;-68
2022/01/17 06:53:36;;;;;;;;;;;;;;;-0.41;97.20;98241.98;1688453;85;20132;-68
2022/01/17 06:56:03;;;;;;;;;;;;;;;-0.39;97.46;98234.43;1688777;85;20142;-68
2022/01/17 06:58:29;;;;;;;;;;;;;;;-0.36;97.53;98220.94;1688408;85;21127;-68
2022/01/17 07:00:56;;;;;;;;;;;;;;;-0.35;97.60;98211.22;1688531;85;20503;-68
2022/01/17 07:03:22;;;;;;;;;;;;;;;-0.34;97.54;98208.79;1688323;85;20177;-67
2022/01/17 07:05:49;;;;;;;;;;;;;;;-0.31;97.61;98220.91;1678373;85;20202;-67
2022/01/17 07:08:15;;;;;;;;;;;;;;;-0.30;97.80;98249.49;1688397;85;20197;-67
2022/01/17 07:10:44;;;;;;;;;;;;;;;-0.26;97.77;98290.20;1688423;85;39261;-67
2022/01/17 07:13:10;;;;;;;;;;;;;;;-0.26;97.88;98308.54;1688353;85;20133;-67
2022/01/17 07:15:36;;;;;;;;;;;;;;;-0.22;98.13;98298.81;1688684;85;20165;-68
2022/01/17 07:18:03;;;;;;;;;;;;;;;-0.18;97.91;98310.67;1710855;82;20130;-68
2022/01/17 07:20:29;;;;;;;;;;;;;;;-0.14;97.71;98293.39;1713808;83;20178;-68
2022/01/17 07:22:55;;;;;;;;;;;;;;;-0.11;97.52;98269.91;1714088;83;21708;-69
2022/01/17 07:25:21;;;;;;;;;;;;;;;-0.10;97.65;98254.80;1713676;83;20504;-69
2022/01/17 07:27:48;;;;;;;;;;;;;;;-0.08;97.32;98231.05;1714090;83;20152;-69
2022/01/17 07:30:14;;;;;;;;;;;;;;;-0.07;97.22;98196.23;1713744;83;20163;-69
2022/01/17 07:32:40;;;;;;;;;;;;;;;-0.06;97.25;98161.97;1714042;83;20216;-70
2022/01/17 07:35:07;;;;;;;;;;;;;;;-0.06;97.28;98129.60;1713774;83;21068;-70
2022/01/17 07:37:33;;;;;;;;;;;;;;;-0.05;97.11;98127.17;1713608;83;20169;-72
2022/01/17 07:40:00;;;;;;;;;;;;;;;-0.05;97.12;98145.51;1713678;83;20483;-71
2022/01/17 07:42:26;;;;;;;;;;;;;;;-0.04;97.05;98164.66;1713411;83;20125;-70
2022/01/17 07:44:55;;;;;;;;;;;;;;;-0.03;96.97;98154.13;1725665;82;20202;-69
2022/01/17 07:47:38;;;;;;;;;;;;;;;-0.01;96.99;98153.84;1728704;82;20416;-69
2022/01/17 07:49:50;;;;;;;;;;;;;;;0.01;96.83;98169.18;1726319;81;20169;-69
2022/01/17 07:52:17;;;;;;;;;;;;;;;0.05;96.84;98173.47;1728714;82;20087;-69
2022/01/17 07:54:44;;;;;;;;;;;;;;;0.07;96.31;98192.89;1728846;82;20494;-69
2022/01/17 07:57:11;;;;;;;;;;;;;;;0.08;96.25;98213.39;1725632;81;20193;-69
2022/01/17 07:59:37;;;;;;;;;;;;;;;0.13;96.27;98208.77;1727753;82;21072;-69
2022/01/17 08:02:04;;;;;;;;;;;;;;;0.16;96.00;98191.20;1726803;81;20194;-68
2022/01/17 08:04:30;;;;;;;;;;;;;;;0.19;95.44;98169.05;1729562;82;20127;-68
2022/01/17 08:06:57;;;;;;;;;;;;;;;0.21;95.78;98146.09;1740131;82;20158;-67
2022/01/17 08:09:31;;;;;;;;;;;;;;;0.24;95.38;98127.19;1743382;82;20168;-69
2022/01/17 08:11:58;;;;;;;;;;;;;;;0.26;95.09;98144.70;1743349;82;21148;-69
2022/01/17 08:14:26;;;;;;;;;;;;;;;0.29;95.14;98110.95;1743349;81;20160;-70
2022/01/17 08:16:52;;;;;;;;;;;;;;;0.32;94.74;98105.78;1736197;82;20091;-69
2022/01/17 08:19:19;;;;;;;;;;;;;;;0.35;94.62;98115.75;1717038;82;21774;-70
2022/01/17 08:21:48;;;;;;;;;;;;;;;0.36;94.64;98115.47;1715461;82;20468;-74
2022/01/17 08:24:15;;;;;;;;;;;;;;;0.37;94.35;98077.94;1716820;83;21001;-77
2022/01/17 08:26:43;;;;;;;;;;;;;;;0.37;94.02;98067.14;1716951;83;20114;-69
2022/01/17 08:29:10;;;;;;;;;;;;;;;0.38;94.08;98072.80;1717439;83;20107;-67
2022/01/17 08:31:37;;;;;;;;;;;;;;;0.40;94.08;98059.82;1717055;82;20104;-66
2022/01/17 08:34:03;;;;;;;;;;;;;;;0.43;93.87;98048.45;1716396;82;20183;-66
2022/01/17 08:36:29;;;;;;;;;;;;;;;0.50;93.63;98061.61;1717039;82;21962;-70
2022/01/17 08:38:55;;;;;;;;;;;;;;;0.55;93.37;98059.66;1717103;82;20918;-73
2022/01/17 08:41:21;;;;;;;;;;;;;;;0.60;93.01;98046.08;1717141;83;20154;-77
2022/01/17 08:43:48;;;;;;;;;;;;;;;0.65;92.61;98017.66;1717214;83;20123;-73
2022/01/17 08:46:14;;;;;;;;;;;;;;;0.72;92.74;98047.57;1717050;82;20323;-73
2022/01/17 08:48:41;;;;;;;;;;;;;;;0.76;91.93;98025.64;1717017;83;21797;-72
2022/01/17 08:51:07;;;;;;;;;;;;;;;0.77;91.61;98029.95;1717068;83;20979;-78
2022/01/17 08:53:35;;;;;;;;;;;;;;;0.77;91.53;98038.06;1717156;83;20147;-73
2022/01/17 08:56:01;;;;;;;;;;;;;;;0.76;91.35;98034.55;1717112;83;20172;-73
2022/01/17 08:58:27;;;;;;;;;;;;;;;0.77;91.56;98025.91;1717473;82;20441;-74
2022/01/17 09:00:56;;;;;;;;;;;;;;;0.78;91.49;98028.86;1716740;83;21100;-77
2022/01/17 09:03:22;;;;;;;;;;;;;;;0.79;91.34;98042.08;1716659;82;20126;-77
2022/01/17 09:05:48;;;;;;;;;;;;;;;0.79;91.30;98024.52;1731017;82;20167;-76
2022/01/17 09:08:16;;;;;;;;;;;;;;;0.79;91.24;98031.82;1704969;83;20464;-77
2022/01/17 09:10:43;;;;;;;;;;;;;;;0.79;91.16;98030.47;1689553;85;20074;-78
2022/01/17 09:13:10;;;;;;;;;;;;;;;0.78;91.09;98019.41;1688994;85;21151;-70
2022/01/17 09:15:36;;;;;;;;;;;;;;;0.76;91.37;98021.05;1707420;83;20131;-69
2022/01/17 09:18:03;;;;;;;;;;;;;;;0.75;91.62;97997.02;1689404;84;20086;-71
2022/01/17 09:20:34;;;;;;;;;;;;;;;0.76;91.32;97999.98;1717196;83;20083;-71
2022/01/17 09:22:59;;;;;;;;;;;;;;;0.75;91.23;97985.67;1718445;82;20167;-74
2022/01/17 09:25:25;;;;;;;;;;;;;;;0.76;91.24;97972.97;1718675;83;21483;-68
2022/01/17 09:27:51;;;;;;;;;;;;;;;0.78;91.01;97974.84;1718305;83;20096;-68
2022/01/17 09:30:18;;;;;;;;;;;;;;;0.79;91.14;97964.29;1718299;83;20174;-68
2022/01/17 09:32:46;;;;;;;;;;;;;;;0.79;91.42;97952.94;1718554;82;20310;-73
2022/01/17 09:35:12;;;;;;;;;;;;;;;0.81;91.02;97947.25;1718565;82;20111;-69
2022/01/17 09:37:39;;;;;;;;;;;;;;;0.82;91.14;97935.34;1718310;83;21915;-70
2022/01/17 09:40:07;;;;;;;;;;;;;;;0.84;90.99;97934.50;1718534;83;20466;-68
2022/01/17 09:42:38;;;;;;;;;;;;;;;0.85;90.93;97931.52;1718241;82;20096;-69
2022/01/17 09:45:09;;;;;;;;;;;;;;;0.89;90.90;97924.44;1717983;82;20132;-71
2022/01/17 09:47:36;;;;;;;;;;;;;;;0.91;90.61;97920.89;1694480;82;20137;-69
2022/01/17 09:50:06;;;;;;;;;;;;;;;0.95;90.54;97911.66;1689751;85;21601;-69
2022/01/17 09:52:36;;;;;;;;;;;;;;;0.97;90.84;97902.70;1689748;84;20186;-70
2022/01/17 09:55:14;;;;;;;;;;;;;;;0.99;90.39;97909.42;1689316;85;20127;-68
2022/01/17 09:57:45;;;;;;;;;;;;;;;0.99;90.68;97874.84;1689745;85;20417;-69
2022/01/17 10:00:12;;;;;;;;;;;;;;;0.99;90.40;97895.91;1689953;84;20094;-72
2022/01/17 10:02:41;;;;;;;;;;;;;;;0.98;90.15;97898.36;1689664;85;21128;-76
2022/01/17 10:05:08;;;;;;;;;;;;;;;0.98;90.20;97892.16;1689595;85;20098;-69
2022/01/17 10:08:04;;;;;;;;;;;;;;;0.95;90.32;97877.33;1689477;85;20161;-68
2022/01/17 10:10:45;;;;;;;;;;;;;;;0.94;90.38;97882.48;1689643;85;20078;-73
2022/01/17 10:13:21;;;;;;;;;;;;;;;0.93;90.37;97872.77;1689633;85;20122;-71
2022/01/17 10:15:59;;;;;;;;;;;;;;;0.94;90.25;97865.47;1689574;85;21159;-71
2022/01/17 10:18:29;;;;;;;;;;;;;;;0.94;90.42;97859.52;1689549;84;20114;-71
2022/01/17 10:21:58;;;;;;;;;;;;;;;0.96;90.29;97858.67;1689246;84;20109;-72
2022/01/17 10:23:47;;;;;;;;;;;;;;;0.98;90.50;97858.38;1683850;85;20074;-74
2022/01/17 10:26:16;;;;;;;;;;;;;;;1.02;90.29;97849.14;1689084;84;20126;-71
2022/01/17 10:28:56;;;;;;;;;;;;;;;1.05;90.27;97846.65;1688978;84;21961;-73
2022/01/17 10:36:56;;;;;;;;;;;;;;;1.15;89.27;97820.01;1689584;85;20141;-70
2022/01/17 10:39:22;;;;;;;;;;;;;;;1.16;89.68;97798.61;1689684;85;20114;-70
2022/01/17 10:41:48;;;;;;;;;;;;;;;1.16;89.11;97787.80;1689984;85;21119;-66
2022/01/17 10:44:37;;;;;;;;;;;;;;;1.17;88.80;97781.29;1689468;85;21620;-67
2022/01/17 10:47:25;;;;;;;;;;;;;;;1.17;88.57;97773.19;1689578;85;20114;-66
2022/01/17 10:49:54;;;;;;;;;;;;;;;1.17;88.60;97775.34;1688575;84;20110;-66
2022/01/17 10:52:34;;;;;;;;;;;;;;;1.19;88.63;97773.14;1689550;85;20432;-67
2022/01/17 10:55:04;;;;;;;;;;;;;;;1.21;88.36;97755.27;1689507;85;21168;-66
2022/01/17 10:57:34;;;;;;;;;;;;;;;1.23;88.00;97775.50;1689563;85;20098;-66
2022/01/17 11:00:02;;;;;;;;;;;;;;;1.26;87.73;97747.07;1689334;84;20098;-67
2022/01/17 11:02:29;;;;;;;;;;;;;;;1.26;87.72;97741.11;1679989;85;20413;-66
2022/01/17 11:04:56;;;;;;;;;;;;;;;1.25;87.52;97732.75;1689803;84;20110;-66
2022/01/17 11:07:22;;;;;;;;;;;;;;;1.25;87.63;97731.40;1689477;85;22884;-66
2022/01/17 11:09:49;;;;;;;;;;;;;;;1.24;87.34;97740.61;1689733;85;20173;-66
2022/01/17 11:12:17;;;;;;;;;;;;;;;1.23;87.79;97723.34;1689513;85;20424;-66
2022/01/17 11:14:44;;;;;;;;;;;;;;;1.23;87.78;97720.64;1689486;85;20182;-66
2022/01/17 11:17:26;;;;;;;;;;;;;;;1.21;88.78;97714.17;1689531;85;20178;-67
2022/01/17 11:20:07;;;;;;;;;;;;;;;1.23;88.29;97711.17;1689887;84;21808;-66
2022/01/17 11:22:36;;;;;;;;;;;;;;;1.21;87.63;97712.83;1690349;83;20086;-66
2022/01/17 11:25:05;;;;;;;;;;;;;;;1.19;87.68;97712.32;1689561;85;20135;-66
2022/01/17 11:27:31;;;;;;;;;;;;;;;1.19;88.37;97702.06;1689508;85;20106;-66
2022/01/17 11:30:00;;;;;;;;;;;;;;;1.19;88.04;97698.81;1689459;84;20110;-66
2022/01/17 11:32:27;;;;;;;;;;;;;;;1.19;88.16;97686.64;1689598;85;21223;-65
2022/01/17 11:34:57;;;;;;;;;;;;;;;1.19;88.27;97671.78;1689452;85;20098;-66
2022/01/17 11:37:24;;;;;;;;;;;;;;;1.19;88.28;97673.12;1689579;84;20172;-66
2022/01/17 11:39:57;;;;;;;;;;;;;;;1.20;88.36;97667.17;1689671;84;20413;-66
2022/01/17 11:42:42;;;;;;;;;;;;;;;1.21;88.44;97675.53;1689921;84;20113;-66
2022/01/17 11:45:30;;;;;;;;;;;;;;;1.22;88.39;97652.26;1689515;85;21063;-65
2022/01/17 11:47:59;;;;;;;;;;;;;;;1.24;88.44;97639.80;1689662;84;20094;-65
2022/01/17 11:50:36;;;;;;;;;;;;;;;1.27;88.27;97633.78;1689765;84;20122;-65
2022/01/17 11:53:15;;;;;;;;;;;;;;;1.30;88.20;97635.34;1689702;85;20440;-66
2022/01/17 11:55:44;;;;;;;;;;;;;;;1.37;87.86;97632.78;1689708;85;20460;-66
2022/01/17 11:58:18;;;;;;;;;;;;;;;1.42;87.71;97621.31;1689574;83;21127;-65
2022/01/17 12:00:46;;;;;;;;;;;;;;;1.47;87.37;97606.88;1709714;82;20143;-66
2022/01/17 12:03:19;;;;;;;;;;;;;;;1.51;87.16;97602.47;1718641;83;20083;-66
2022/01/17 12:05:45;;;;;;;;;;;;;;;1.53;86.84;97588.89;1718025;82;20131;-67
2022/01/17 12:08:22;;;;;;;;;;;;;;;1.53;86.86;97583.48;1700499;83;20094;-66
2022/01/17 12:10:51;;;;;;;;;;;;;;;1.55;86.82;97571.81;1707440;83;23274;-65
2022/01/17 12:13:23;;;;;;;;;;;;;;;1.55;86.94;97571.81;1717796;83;20095;-66
2022/01/17 12:16:07;;;;;;;;;;;;;;;1.53;87.43;97601.61;1717423;83;20136;-66
2022/01/17 12:18:36;;;;;;;;;;;;;;;1.48;88.41;97574.12;1717439;82;20104;-65
2022/01/17 12:21:40;;;;;;;;;;;;;;;1.41;89.54;97556.72;1717413;83;20438;-66
2022/01/17 12:24:25;;;;;;;;;;;;;;;1.34;90.72;97561.19;1692783;83;21173;-66
2022/01/17 12:27:01;;;;;;;;;;;;;;;1.21;93.02;97556.05;1694921;83;20422;-66
2022/01/17 12:29:55;;;;;;;;;;;;;;;1.11;93.90;97556.85;1706657;82;20156;-66
2022/01/17 12:32:35;;;;;;;;;;;;;;;1.02;95.03;97556.77;1688477;85;20133;-66
2022/01/17 12:35:08;;;;;;;;;;;;;;;0.93;96.01;97547.21;1688293;84;20449;-66
2022/01/17 12:37:42;;;;;;;;;;;;;;;0.87;97.02;97544.91;1688406;85;21115;-66
2022/01/17 12:40:21;;;;;;;;;;;;;;;0.81;98.00;97536.11;1706927;83;20513;-65
2022/01/17 12:43:07;;;;;;;;;;;;;;;0.74;98.73;97524.11;1734367;81;20197;-66
2022/01/17 12:45:48;;;;;;;;;;;;;;;0.70;99.82;97509.61;1704399;84;20173;-66
2022/01/17 12:48:20;;;;;;;;;;;;;;;0.65;100.00;97507.80;1704044;84;20221;-68
2022/01/17 12:50:49;;;;;;;;;;;;;;;0.60;100.00;97489.01;1704823;84;21128;-66
2022/01/17 12:53:17;;;;;;;;;;;;;;;0.56;100.00;97488.03;1705204;84;20448;-66
2022/01/17 12:55:45;;;;;;;;;;;;;;;0.52;100.00;97514.84;1704956;84;20149;-65
2022/01/17 12:58:24;;;;;;;;;;;;;;;0.49;100.00;97507.88;1704679;84;20138;-66
2022/01/17 13:00:56;;;;;;;;;;;;;;;0.45;100.00;97507.68;1676148;84;20303;-68
2022/01/17 13:03:26;;;;;;;;;;;;;;;0.41;100.00;97505.33;1709833;83;21776;-65
2022/01/17 13:05:53;;;;;;;;;;;;;;;0.37;100.00;97499.48;1723483;83;20438;-68
2022/01/17 13:08:20;;;;;;;;;;;;;;;0.33;100.00;97487.13;1723347;83;20161;-66
2022/01/17 13:10:47;;;;;;;;;;;;;;;0.29;100.00;97461.84;1723192;83;20112;-67
2022/01/17 13:13:16;;;;;;;;;;;;;;;0.24;100.00;97457.34;1723551;83;20138;-67
2022/01/17 13:16:01;;;;;;;;;;;;;;;0.21;100.00;97459.28;1722440;83;21162;-68
2022/01/17 13:18:29;;;;;;;;;;;;;;;0.18;100.00;97461.23;1727198;82;20088;-67
2022/01/17 13:20:56;;;;;;;;;;;;;;;0.12;100.00;97452.98;1741441;82;20151;-67
2022/01/17 13:23:32;;;;;;;;;;;;;;;0.08;100.00;97445.23;1741370;82;21719;-67